Funk Island Bank: Past 24 Hour Conditions

 

Port aux Basques

06:30 AM NDT 19 September 2014
This table is a summary of hourly weather conditions for the past 24 hours.
Date / Time
(NDT)
Wind(knots) Conditions Visibility(km) Pressure(kPa) Air tempC) Relative humidity(%) Dew pointC)
19 September 2014
6:30 NW 8 Clear 15 101.3 6 85 4
5:30 NW 5 Mainly Clear 15 101.3 6 84 4
4:30 NW 10 Partly Cloudy 15 101.2 8 81 5
3:30 NW 12 Mainly Clear 15 101.2 9 87 7
2:30 NW 7 Mainly Clear 15 101.3 9 92 8
1:30 NW 10 gust 16 Light Rain 13 101.2 10 94 9
0:30 WNW 14 gust 19 Partly Cloudy 15 101.2 10 94 9
18 September 2014
23:30 WNW 14 Cloudy 15 101.2 10 92 9
22:30 NW 14 Mostly Cloudy 15 101.2 11 92 9
21:30 NW 13 Cloudy 15 101.2 12 94 11
20:30 N 4 Light Rain 15 101.2 12 92 11
19:30 SSW 6 Rain 2 101.2 12 91 10
18:30 S 13 Mostly Cloudy 15 101.1 15 91 14
17:30 SSE 13 Mainly Sunny 15 101.2 15 90 14
16:30 SSE 13 Partly Cloudy 15 101.2 16 88 14
15:30 SSE 11 Mostly Cloudy 15 101.3 16 89 14
14:30 SSE 13 Mostly Cloudy 15 101.3 16 87 14
13:30 SSE 12 Mainly Sunny 15 101.4 17 83 14
12:30 SE 10 Cloudy 15 101.4 16 82 13
11:30 ESE 10 Sunny 15 101.5 14 84 12
10:30 E 11 Mainly Sunny 15 101.5 14 85 11
9:30 E 11 Sunny 15 101.6 13 85 10
8:30 ENE 8 Sunny 15 101.6 11 92 9
7:30 ENE 6 Partly Cloudy 15 101.6 9 94 8
6:30 ENE 5 Clear 15 101.6 8 95 8
 
Map of Atlantic - Newfoundland marine weather areas Southwestern Grand Banks - 44138 Banquereau - 44139 Tail of the Bank - 44140 Nickerson Bank - 44251 Northeast Burgeo Bank - 44255 Blanc-Sablon Airport Cap Whittle Chevery Natashquan Airport Heath Point Miscou Island Grand Étang Ingonish Beach North Mountain St.Paul Island J.A. Douglas McCurdy Sydney Airport Charlottetown Airport East Point North Cape Argentia Bonavista Burgeo Cape Race Corner Brook Daniel's Harbour Englee Ferolle Point La Scie Port aux Basques Rocky Harbour Sagona Island St. Anthony Airport St. John's Int'l Airport St. Lawrence Stephenville Airport Twillingate Winterland Wreckhouse Cartwright Airport Mary's Harbour Grates Cove Pool's Island Marticot Island Long Pond Îles de la Madeleine Airport
Legend: buoyBuoy land stationLand Station